Time;durP1;ratioP1;P1;durP2;ratioP2;P2;SDS_P1;SDS_P2;PMS_P1;PMS_P2;Temp;Humidity;BMP_temperature;BMP_pressure;BME280_temperature;BME280_humidity;BME280_pressure;Samples;Min_cycle;Max_cycle;Signal;HPM_P1;HPM_P2
2021/11/03 00:00:47;;;;;;;2.92;1.05;;;26.60;64.90;;;;;;5033036;28;20037;-64
2021/11/03 00:03:14;;;;;;;2.90;0.68;;;26.80;66.50;;;;;;5033794;28;20122;-67
2021/11/03 00:05:45;;;;;;;2.45;0.73;;;27.20;59.10;;;;;;5034234;28;20017;-67
2021/11/03 00:08:14;;;;;;;2.00;1.08;;;27.40;62.60;;;;;;5033509;28;20434;-68
2021/11/03 00:10:43;;;;;;;5.00;2.03;;;27.30;59.50;;;;;;5033088;28;20499;-64
2021/11/03 00:13:11;;;;;;;2.67;1.30;;;27.40;59.80;;;;;;5034966;28;20518;-67
2021/11/03 00:15:39;;;;;;;3.17;1.33;;;27.50;60.70;;;;;;5035824;28;20044;-64
2021/11/03 00:18:06;;;;;;;3.13;1.30;;;27.50;58.30;;;;;;5035182;28;20013;-64
2021/11/03 00:20:35;;;;;;;2.45;0.95;;;27.70;59.40;;;;;;5034162;28;20033;-63
2021/11/03 00:23:03;;;;;;;3.35;0.95;;;27.90;57.30;;;;;;5033669;28;20029;-63
2021/11/03 00:25:30;;;;;;;1.25;0.65;;;28.00;55.70;;;;;;5030950;28;20098;-66
2021/11/03 00:27:57;;;;;;;2.85;0.95;;;28.10;56.50;;;;;;5037829;28;20025;-67
2021/11/03 00:30:24;;;;;;;3.53;0.90;;;27.80;57.30;;;;;;5037249;28;20676;-68
2021/11/03 00:32:51;;;;;;;4.57;3.47;;;28.10;54.00;;;;;;5038305;28;20029;-66
2021/11/03 00:35:19;;;;;;;1.95;0.90;;;28.10;56.90;;;;;;5037046;28;20076;-66
2021/11/03 00:37:46;;;;;;;1.45;0.75;;;28.00;55.30;;;;;;5037192;28;20730;-67
2021/11/03 00:40:13;;;;;;;2.05;0.82;;;28.10;52.90;;;;;;5038160;28;20593;-66
2021/11/03 00:42:40;;;;;;;2.00;0.73;;;28.00;52.80;;;;;;5037480;28;20171;-64
2021/11/03 00:45:08;;;;;;;7.22;1.63;;;28.40;52.10;;;;;;5038884;28;20098;-68
2021/11/03 00:47:35;;;;;;;2.38;0.73;;;28.60;52.60;;;;;;5038641;28;20072;-67
2021/11/03 00:50:03;;;;;;;2.53;0.80;;;28.40;51.30;;;;;;5038617;28;20024;-68
2021/11/03 00:54:59;;;;;;;2.10;0.85;;;28.80;52.50;;;;;;4965098;28;20058;-65
2021/11/03 00:57:26;;;;;;;1.52;0.80;;;29.00;50.60;;;;;;4969210;28;20025;-64
2021/11/03 00:59:53;;;;;;;3.92;1.02;;;29.30;49.30;;;;;;4969215;28;20027;-64
2021/11/03 01:02:20;;;;;;;1.83;1.02;;;29.30;48.70;;;;;;4970145;28;20023;-64
2021/11/03 01:04:47;;;;;;;6.20;0.98;;;29.10;51.20;;;;;;4970634;28;20031;-63
2021/11/03 01:07:14;;;;;;;3.08;0.90;;;29.00;51.50;;;;;;4970468;28;20096;-68
2021/11/03 01:09:41;;;;;;;4.15;0.93;;;29.20;50.10;;;;;;4970266;28;20027;-65
2021/11/03 01:12:08;;;;;;;1.15;0.77;;;29.50;46.50;;;;;;4968892;28;20026;-67
2021/11/03 01:14:37;;;;;;;2.55;0.90;;;29.50;48.50;;;;;;4969932;28;20031;-67
2021/11/03 01:17:06;;;;;;;2.95;0.60;;;29.50;48.60;;;;;;4969929;28;20027;-67
2021/11/03 01:19:33;;;;;;;2.35;1.02;;;29.70;47.70;;;;;;4969989;28;20041;-68
2021/11/03 01:22:00;;;;;;;1.90;0.70;;;29.80;49.00;;;;;;4969859;28;20027;-67
2021/11/03 01:24:27;;;;;;;1.25;0.90;;;30.20;49.20;;;;;;4966746;28;20061;-67
2021/11/03 01:26:54;;;;;;;6.68;1.50;;;30.20;47.50;;;;;;4969561;28;20073;-67
2021/11/03 01:29:22;;;;;;;2.10;0.70;;;30.10;48.00;;;;;;4968441;28;20031;-67
2021/11/03 01:31:49;;;;;;;3.45;1.17;;;30.10;47.50;;;;;;4966589;28;20043;-66
2021/11/03 01:34:16;;;;;;;1.88;1.17;;;29.50;47.70;;;;;;4967540;28;20367;-66
2021/11/03 01:36:43;;;;;;;2.22;0.80;;;29.70;46.90;;;;;;4967220;28;20106;-65
2021/11/03 01:39:10;;;;;;;3.85;2.67;;;29.90;47.30;;;;;;4966625;28;20489;-66
2021/11/03 01:41:38;;;;;;;5.00;1.10;;;30.40;47.10;;;;;;4968266;28;20018;-64
2021/11/03 01:44:15;;;;;;;1.58;0.90;;;30.70;46.60;;;;;;4968007;28;20455;-66
2021/11/03 01:47:20;;;;;;;3.55;1.15;;;30.50;46.20;;;;;;4968137;28;20019;-65
2021/11/03 01:49:47;;;;;;;1.63;0.85;;;30.80;45.10;;;;;;4944857;28;20035;-63
2021/11/03 01:52:16;;;;;;;1.58;0.52;;;30.90;46.30;;;;;;4968417;28;20018;-64
2021/11/03 01:54:51;;;;;;;2.03;0.90;;;31.00;44.60;;;;;;4967286;28;20030;-64
2021/11/03 01:57:26;;;;;;;2.83;1.30;;;31.30;44.10;;;;;;4966959;28;20035;-64
2021/11/03 02:00:00;;;;;;;2.92;0.98;;;31.50;46.30;;;;;;4968133;28;20050;-63
2021/11/03 02:02:27;;;;;;;3.83;1.42;;;31.60;44.40;;;;;;4967829;28;20543;-64
2021/11/03 02:04:55;;;;;;;1.40;0.68;;;31.60;45.50;;;;;;4966833;28;20125;-67
2021/11/03 02:07:26;;;;;;;2.67;0.98;;;31.70;45.40;;;;;;4967469;28;20034;-65
2021/11/03 02:09:54;;;;;;;2.28;1.05;;;31.20;45.10;;;;;;4967254;28;20041;-65
2021/11/03 02:12:26;;;;;;;1.48;0.88;;;31.20;44.60;;;;;;4967110;28;20094;-66
2021/11/03 02:14:55;;;;;;;3.75;1.67;;;31.20;44.10;;;;;;4967430;28;20040;-64
2021/11/03 02:17:24;;;;;;;2.85;1.15;;;31.40;44.50;;;;;;4967319;28;20045;-67
2021/11/03 02:19:58;;;;;;;2.78;1.10;;;31.90;42.70;;;;;;4966965;28;20036;-63
2021/11/03 02:22:51;;;;;;;1.52;0.80;;;31.70;45.30;;;;;;4967319;28;20436;-64
2021/11/03 02:25:37;;;;;;;2.20;0.88;;;31.60;43.80;;;;;;4965877;28;20053;-66
2021/11/03 02:28:05;;;;;;;3.50;1.13;;;31.00;46.10;;;;;;4967796;28;20356;-65
2021/11/03 02:30:33;;;;;;;3.47;0.82;;;30.80;47.00;;;;;;4965373;28;20486;-67
2021/11/03 02:33:04;;;;;;;2.75;1.00;;;30.80;46.60;;;;;;4966831;28;20054;-66
2021/11/03 02:35:31;;;;;;;2.27;0.77;;;31.10;45.70;;;;;;4967307;28;20509;-66
2021/11/03 02:37:59;;;;;;;3.42;0.82;;;31.00;47.00;;;;;;4967099;28;20327;-65
2021/11/03 02:40:47;;;;;;;2.83;1.13;;;31.10;46.90;;;;;;4967142;28;20022;-66
2021/11/03 02:43:28;;;;;;;1.73;0.80;;;31.10;46.60;;;;;;4966104;28;20041;-67
2021/11/03 02:46:00;;;;;;;2.05;0.70;;;30.80;47.00;;;;;;4965737;28;20055;-66
2021/11/03 02:48:32;;;;;;;3.45;2.10;;;30.30;48.80;;;;;;4966781;28;20026;-66
2021/11/03 02:51:09;;;;;;;2.75;1.17;;;30.00;49.50;;;;;;4966438;28;20034;-66
2021/11/03 02:53:40;;;;;;;4.18;1.00;;;29.90;49.50;;;;;;4966402;28;20362;-68
2021/11/03 02:56:08;;;;;;;2.57;0.90;;;30.60;48.90;;;;;;4966740;28;20031;-64
2021/11/03 02:58:36;;;;;;;5.03;1.10;;;31.30;50.30;;;;;;4967411;28;20375;-64
2021/11/03 03:01:21;;;;;;;2.78;1.00;;;31.90;47.90;;;;;;4965166;28;20220;-67
2021/11/03 03:03:50;;;;;;;1.92;0.88;;;31.90;49.80;;;;;;4965514;28;20023;-68
2021/11/03 03:06:22;;;;;;;2.05;0.80;;;32.00;50.20;;;;;;4965377;28;20035;-67
2021/11/03 03:08:49;;;;;;;3.97;1.05;;;32.40;48.10;;;;;;4964696;28;20455;-66
2021/11/03 03:11:17;;;;;;;2.40;0.90;;;32.80;46.50;;;;;;4965344;28;20117;-67
2021/11/03 03:13:44;;;;;;;6.82;3.85;;;32.20;46.10;;;;;;4965139;28;20026;-66
2021/11/03 03:16:11;;;;;;;9.80;6.20;;;31.10;48.00;;;;;;4965823;28;20390;-65
2021/11/03 03:18:38;;;;;;;9.10;3.45;;;30.90;49.60;;;;;;4965285;28;20030;-67
2021/11/03 03:21:05;;;;;;;3.50;1.48;;;30.80;49.90;;;;;;4966305;28;20162;-66
2021/11/03 03:23:32;;;;;;;2.28;0.82;;;30.70;50.90;;;;;;4962756;28;20057;-64
2021/11/03 03:26:00;;;;;;;4.03;1.15;;;31.10;51.50;;;;;;4965961;28;20113;-65
2021/11/03 03:28:27;;;;;;;2.85;0.70;;;31.40;47.60;;;;;;4982108;28;20389;-65
2021/11/03 03:30:54;;;;;;;2.38;0.65;;;31.50;48.00;;;;;;4966271;28;20057;-66
2021/11/03 03:33:21;;;;;;;2.67;0.95;;;30.80;48.80;;;;;;4964978;28;20440;-67
2021/11/03 03:35:48;;;;;;;4.30;1.30;;;30.50;50.50;;;;;;4966016;28;20405;-66
2021/11/03 03:38:15;;;;;;;2.30;0.98;;;30.70;50.80;;;;;;4965793;28;20026;-66
2021/11/03 03:40:42;;;;;;;4.07;1.20;;;30.70;49.40;;;;;;4966656;28;20019;-65
2021/11/03 03:43:11;;;;;;;2.60;0.80;;;30.20;50.40;;;;;;4964853;28;20019;-64
2021/11/03 03:45:38;;;;;;;3.63;1.10;;;30.00;50.90;;;;;;4964862;28;20022;-63
2021/11/03 03:48:05;;;;;;;4.88;1.02;;;30.00;51.30;;;;;;4965331;28;20358;-63
2021/11/03 03:50:33;;;;;;;3.80;1.13;;;29.30;51.40;;;;;;4965817;28;20409;-65
2021/11/03 03:53:00;;;;;;;2.50;0.95;;;29.00;52.00;;;;;;4964333;28;20118;-65
2021/11/03 03:55:27;;;;;;;4.40;1.30;;;29.70;53.40;;;;;;4963969;28;20049;-65
2021/11/03 03:57:55;;;;;;;4.80;0.93;;;30.20;51.70;;;;;;4966858;28;20274;-64
2021/11/03 04:00:22;;;;;;;4.45;0.88;;;30.70;51.80;;;;;;4965244;28;21040;-67
2021/11/03 04:02:51;;;;;;;3.90;1.02;;;31.20;49.90;;;;;;4965102;28;20102;-63
2021/11/03 04:05:21;;;;;;;4.53;1.08;;;31.00;51.10;;;;;;4969071;28;20033;-66
2021/11/03 04:07:48;;;;;;;3.40;0.73;;;30.30;51.90;;;;;;4967675;28;20034;-62
2021/11/03 04:10:16;;;;;;;2.53;0.82;;;30.50;53.40;;;;;;4962644;28;20445;-62
2021/11/03 04:12:44;;;;;;;4.05;1.25;;;30.70;52.40;;;;;;4974791;28;20030;-65
2021/11/03 04:15:12;;;;;;;3.45;1.02;;;31.40;50.60;;;;;;4972887;28;20034;-64
2021/11/03 04:17:40;;;;;;;2.30;0.60;;;32.00;48.20;;;;;;4974951;28;20535;-61
2021/11/03 04:20:11;;;;;;;4.25;0.70;;;31.10;49.20;;;;;;4976196;28;20255;-66
2021/11/03 04:22:38;;;;;;;3.55;0.73;;;30.50;50.60;;;;;;4975105;28;20014;-67
2021/11/03 04:25:08;;;;;;;2.08;0.70;;;30.80;51.00;;;;;;4971255;28;20133;-64
2021/11/03 04:27:35;;;;;;;7.47;1.00;;;30.90;50.00;;;;;;4976428;28;20113;-62
2021/11/03 04:30:04;;;;;;;2.75;1.05;;;30.60;52.10;;;;;;4975481;28;20103;-62
2021/11/03 04:32:30;;;;;;;3.97;1.23;;;31.00;50.40;;;;;;4974354;28;20015;-65
2021/11/03 04:34:57;;;;;;;1.90;0.70;;;31.20;50.40;;;;;;4984637;28;20041;-70
2021/11/03 04:37:24;;;;;;;3.05;0.75;;;31.20;50.00;;;;;;4976755;28;20015;-75
2021/11/03 04:39:51;;;;;;;4.07;1.17;;;31.00;50.00;;;;;;4976715;28;20026;-68
2021/11/03 04:42:18;;;;;;;3.22;1.55;;;31.10;51.40;;;;;;4974890;28;20077;-76
2021/11/03 04:44:45;;;;;;;3.83;1.08;;;31.30;50.20;;;;;;4973800;28;20027;-69
2021/11/03 04:47:12;;;;;;;6.68;5.18;;;31.50;51.00;;;;;;4971147;28;20474;-72
2021/11/03 04:49:39;;;;;;;4.88;2.67;;;31.70;49.70;;;;;;4967437;28;20103;-69
2021/11/03 04:52:07;;;;;;;1.58;0.75;;;31.70;50.70;;;;;;4967733;28;20066;-71
2021/11/03 04:54:34;;;;;;;4.22;0.98;;;31.90;48.70;;;;;;4973019;28;20064;-73
2021/11/03 04:57:01;;;;;;;1.90;1.00;;;31.90;48.50;;;;;;4965481;28;20031;-73
2021/11/03 04:59:28;;;;;;;2.45;0.80;;;31.90;48.90;;;;;;4977643;28;20484;-74
2021/11/03 05:01:55;;;;;;;3.47;1.10;;;31.70;48.70;;;;;;4974833;28;20394;-69
2021/11/03 05:04:22;;;;;;;5.88;1.35;;;32.00;48.50;;;;;;4977807;28;20109;-74
2021/11/03 05:06:50;;;;;;;3.30;0.90;;;32.20;48.50;;;;;;4975225;28;20031;-69
2021/11/03 05:09:18;;;;;;;3.55;0.80;;;31.90;48.70;;;;;;4977855;28;20019;-74
2021/11/03 05:11:45;;;;;;;5.53;0.90;;;31.40;48.50;;;;;;4972510;28;20374;-72
2021/11/03 05:14:12;;;;;;;4.60;1.00;;;30.90;49.70;;;;;;4978036;28;20050;-68
2021/11/03 05:16:39;;;;;;;5.72;1.35;;;30.40;51.60;;;;;;4976500;28;20106;-72
2021/11/03 05:19:06;;;;;;;4.30;0.80;;;30.10;52.80;;;;;;4976918;28;20047;-68
2021/11/03 05:21:37;;;;;;;2.90;1.15;;;29.70;52.00;;;;;;4972046;28;20132;-70
2021/11/03 05:24:10;;;;;;;7.10;1.45;;;29.50;52.20;;;;;;4968135;28;20033;-71
2021/11/03 05:26:37;;;;;;;3.15;1.30;;;29.20;53.00;;;;;;4971618;28;20530;-71
2021/11/03 05:29:04;;;;;;;5.00;1.15;;;29.00;53.50;;;;;;4970700;28;20031;-70
2021/11/03 05:31:31;;;;;;;3.30;1.05;;;28.50;54.70;;;;;;4971573;28;20410;-70
2021/11/03 05:33:58;;;;;;;3.92;1.10;;;28.30;55.70;;;;;;4971800;28;20019;-69
2021/11/03 05:36:28;;;;;;;3.63;1.42;;;28.40;55.90;;;;;;4978763;28;20089;-70
2021/11/03 05:38:58;;;;;;;4.20;1.25;;;28.70;56.20;;;;;;4971164;28;20070;-70
2021/11/03 05:41:25;;;;;;;6.03;1.27;;;28.70;55.40;;;;;;4971430;28;20082;-69
2021/11/03 05:47:25;;;;;;;4.13;1.08;;;28.80;55.00;;;;;;4270375;23;20049;-68
2021/11/03 05:49:53;;;;;;;6.18;1.17;;;28.80;54.90;;;;;;5073008;28;20074;-70
2021/11/03 05:52:20;;;;;;;3.03;0.80;;;28.70;54.60;;;;;;5062577;28;20099;-68
2021/11/03 05:54:47;;;;;;;7.00;1.33;;;28.30;56.00;;;;;;5067574;28;20028;-69
2021/11/03 05:57:32;;;;;;;5.70;1.25;;;28.10;57.50;;;;;;5071427;28;20024;-71
2021/11/03 06:00:00;;;;;;;4.68;1.15;;;28.10;56.70;;;;;;5069154;28;20095;-72
2021/11/03 06:02:27;;;;;;;2.17;1.00;;;28.00;58.00;;;;;;5055104;28;20050;-69
2021/11/03 06:04:54;;;;;;;5.55;1.15;;;27.70;58.60;;;;;;5059159;28;20236;-67
2021/11/03 06:07:21;;;;;;;3.42;0.82;;;27.60;58.00;;;;;;5070342;28;20024;-70
2021/11/03 06:09:48;;;;;;;5.13;1.13;;;27.30;58.30;;;;;;5069712;28;20095;-71
2021/11/03 06:12:15;;;;;;;4.30;1.25;;;27.10;59.40;;;;;;5074260;28;20069;-72
2021/11/03 06:14:42;;;;;;;5.00;1.20;;;26.90;60.20;;;;;;5058694;28;20029;-69
2021/11/03 06:17:10;;;;;;;2.90;1.00;;;26.70;60.40;;;;;;5069776;28;20095;-69
2021/11/03 06:19:37;;;;;;;4.82;1.20;;;26.40;61.60;;;;;;5069096;28;20471;-69
2021/11/03 06:22:04;;;;;;;4.13;0.98;;;26.30;62.20;;;;;;5065234;28;20175;-70
2021/11/03 06:24:32;;;;;;;2.85;1.05;;;26.20;62.80;;;;;;5067263;28;20017;-71
2021/11/03 06:26:59;;;;;;;5.28;1.15;;;26.00;62.50;;;;;;5068449;28;20528;-70
2021/11/03 06:29:26;;;;;;;4.43;1.05;;;25.80;63.20;;;;;;5070480;28;20541;-71
2021/11/03 06:31:53;;;;;;;4.72;1.23;;;25.60;64.00;;;;;;5066539;28;20017;-72
2021/11/03 06:34:20;;;;;;;4.30;1.02;;;25.50;64.60;;;;;;5068939;28;20406;-68
2021/11/03 06:36:47;;;;;;;2.08;0.95;;;25.40;65.10;;;;;;5070612;28;20012;-70
2021/11/03 06:39:14;;;;;;;2.97;1.08;;;25.30;65.60;;;;;;5070504;28;20012;-70
2021/11/03 06:41:42;;;;;;;2.25;0.77;;;25.10;66.80;;;;;;5052852;28;20474;-70
2021/11/03 06:44:10;;;;;;;3.92;1.00;;;25.00;67.50;;;;;;5073113;28;20064;-69
2021/11/03 06:46:38;;;;;;;2.53;0.85;;;25.10;68.10;;;;;;5070649;28;20064;-69
2021/11/03 06:49:05;;;;;;;6.00;1.00;;;25.10;68.40;;;;;;5051791;28;20394;-68
2021/11/03 06:51:33;;;;;;;4.65;1.20;;;25.30;67.10;;;;;;5049383;28;20113;-72
2021/11/03 06:54:00;;;;;;;4.07;1.10;;;25.70;66.70;;;;;;5085634;22;20045;-71
2021/11/03 06:56:27;;;;;;;6.00;1.10;;;25.60;65.30;;;;;;4728755;28;9999636;-70
2021/11/03 06:58:54;;;;;;;2.88;0.75;;;25.40;66.20;;;;;;5096799;28;20111;-70
2021/11/03 07:01:21;;;;;;;6.00;1.23;;;25.10;67.40;;;;;;5090860;28;20114;-69
2021/11/03 07:03:52;;;;;;;5.22;1.33;;;24.90;68.00;;;;;;5091934;28;20477;-70
2021/11/03 07:06:20;;;;;;;4.28;1.08;;;24.80;68.20;;;;;;5087077;28;20017;-69
2021/11/03 07:08:47;;;;;;;4.55;1.42;;;25.20;69.30;;;;;;5083271;28;20034;-72
2021/11/03 07:11:14;;;;;;;6.45;1.17;;;25.30;67.10;;;;;;5086402;28;20028;-70
2021/11/03 07:13:41;;;;;;;3.85;1.25;;;25.40;66.80;;;;;;5085246;28;20031;-70
2021/11/03 07:16:08;;;;;;;4.22;1.10;;;25.20;67.50;;;;;;5067810;28;20542;-69
2021/11/03 07:18:35;;;;;;;4.18;1.10;;;25.10;67.50;;;;;;5086183;28;20631;-70
2021/11/03 07:21:02;;;;;;;4.20;2.83;;;24.90;67.30;;;;;;5086775;28;20921;-70
2021/11/03 07:23:29;;;;;;;3.33;1.20;;;24.60;69.90;;;;;;5085941;28;20027;-70
2021/11/03 07:25:56;;;;;;;3.83;1.10;;;24.50;70.20;;;;;;5087501;28;20023;-70
2021/11/03 07:28:24;;;;;;;3.33;1.23;;;24.40;70.50;;;;;;5087661;28;20093;-70
2021/11/03 07:30:52;;;;;;;5.82;1.58;;;24.90;69.30;;;;;;5081337;28;20027;-70
2021/11/03 07:33:20;;;;;;;3.63;0.93;;;25.00;68.20;;;;;;5086869;28;20024;-72
2021/11/03 07:35:47;;;;;;;3.83;1.10;;;24.80;69.00;;;;;;5081451;28;20050;-70
2021/11/03 07:38:15;;;;;;;8.80;1.30;;;24.50;69.70;;;;;;5087197;28;20421;-69
2021/11/03 07:40:49;;;;;;;5.70;1.13;;;24.40;69.80;;;;;;5084746;28;20083;-69
2021/11/03 07:43:18;;;;;;;3.70;1.00;;;24.00;73.40;;;;;;5084363;28;20135;-66
2021/11/03 07:45:47;;;;;;;4.10;1.15;;;23.80;73.00;;;;;;5084036;28;20031;-70
2021/11/03 07:48:15;;;;;;;4.82;1.30;;;23.60;73.70;;;;;;5068502;28;20039;-70
2021/11/03 07:50:48;;;;;;;2.35;1.00;;;23.30;75.30;;;;;;5084318;28;20540;-71
2021/11/03 07:53:17;;;;;;;4.38;1.02;;;23.10;76.00;;;;;;5086762;28;20024;-67
2021/11/03 07:55:48;;;;;;;3.20;1.02;;;23.00;77.40;;;;;;5085127;28;20028;-65
2021/11/03 07:58:18;;;;;;;2.75;1.10;;;22.70;78.70;;;;;;5076932;28;20417;-71
2021/11/03 08:00:44;;;;;;;2.45;1.15;;;22.60;80.00;;;;;;5081653;28;21444;-69
2021/11/03 08:03:11;;;;;;;5.05;1.30;;;22.40;81.10;;;;;;5084460;28;20386;-68
2021/11/03 08:05:39;;;;;;;4.85;1.20;;;22.30;82.80;;;;;;5064068;28;20020;-68
2021/11/03 08:08:12;;;;;;;3.90;1.20;;;22.20;84.20;;;;;;5087413;28;20015;-70
2021/11/03 08:10:44;;;;;;;4.53;1.13;;;22.00;84.70;;;;;;5083861;28;20383;-67
2021/11/03 08:13:16;;;;;;;4.50;1.17;;;21.90;86.00;;;;;;5083750;28;20477;-67
2021/11/03 08:15:49;;;;;;;4.30;1.23;;;21.90;87.30;;;;;;5095073;28;20110;-70
2021/11/03 08:18:19;;;;;;;4.10;1.20;;;21.80;88.70;;;;;;5084404;28;20051;-67
2021/11/03 08:20:48;;;;;;;7.18;1.38;;;21.70;89.60;;;;;;5084291;28;20026;-69
2021/11/03 08:23:15;;;;;;;3.42;1.50;;;21.60;90.10;;;;;;5084784;28;20020;-70
2021/11/03 08:25:43;;;;;;;4.53;0.95;;;21.50;90.50;;;;;;5084334;28;20070;-62
2021/11/03 08:28:11;;;;;;;3.70;1.52;;;21.50;90.90;;;;;;5083534;28;20031;-63
2021/11/03 08:30:46;;;;;;;6.88;1.70;;;21.40;91.20;;;;;;5079540;28;20028;-67
2021/11/03 08:33:25;;;;;;;6.57;1.65;;;21.40;91.50;;;;;;5083149;28;20475;-69
2021/11/03 08:35:54;;;;;;;9.60;1.80;;;21.40;91.20;;;;;;5081766;28;20025;-72
2021/11/03 08:38:24;;;;;;;6.40;3.53;;;21.30;91.50;;;;;;5081023;28;20024;-68
2021/11/03 08:40:52;;;;;;;5.40;1.25;;;21.30;91.90;;;;;;5081513;28;20470;-73
2021/11/03 08:43:23;;;;;;;6.72;2.17;;;21.20;92.20;;;;;;5080126;28;20498;-70
2021/11/03 08:45:54;;;;;;;5.90;2.00;;;21.20;92.40;;;;;;5080241;28;20054;-69
2021/11/03 08:48:25;;;;;;;5.07;1.42;;;21.20;92.30;;;;;;5083733;28;20076;-71
2021/11/03 08:50:55;;;;;;;3.17;1.15;;;21.20;92.50;;;;;;5065085;28;20444;-66
2021/11/03 08:53:22;;;;;;;5.68;1.40;;;21.20;92.40;;;;;;5084474;28;20039;-66
2021/11/03 08:55:51;;;;;;;4.90;1.42;;;21.20;92.20;;;;;;5085995;28;20040;-70
2021/11/03 08:58:21;;;;;;;5.97;1.20;;;21.10;92.60;;;;;;5085409;28;20448;-69
2021/11/03 09:00:51;;;;;;;4.05;0.90;;;21.10;92.50;;;;;;5074872;28;20126;-67
2021/11/03 09:03:19;;;;;;;4.53;1.42;;;21.00;92.80;;;;;;5084903;28;20514;-69
2021/11/03 09:05:47;;;;;;;5.70;1.42;;;21.00;92.80;;;;;;5085013;28;20118;-68
2021/11/03 09:08:16;;;;;;;2.90;1.40;;;21.00;93.20;;;;;;5084330;28;20060;-66
2021/11/03 09:10:46;;;;;;;3.53;1.23;;;20.90;93.10;;;;;;5085317;28;20681;-70
2021/11/03 09:13:20;;;;;;;3.17;1.48;;;20.90;93.40;;;;;;5084186;28;20040;-69
2021/11/03 09:15:47;;;;;;;2.63;1.10;;;20.90;93.70;;;;;;5065004;28;20702;-66
2021/11/03 09:18:15;;;;;;;4.22;1.38;;;20.90;93.90;;;;;;5084425;28;20026;-68
2021/11/03 09:20:45;;;;;;;3.50;1.25;;;20.80;93.80;;;;;;5082676;28;20070;-68
2021/11/03 09:23:13;;;;;;;6.57;2.80;;;20.80;94.10;;;;;;5085938;28;20220;-74
2021/11/03 09:25:40;;;;;;;6.00;2.92;;;20.80;93.80;;;;;;5083218;28;20024;-74
2021/11/03 09:28:08;;;;;;;4.90;1.85;;;20.80;93.30;;;;;;5085469;28;20383;-74
2021/11/03 09:30:36;;;;;;;4.28;1.35;;;20.80;93.70;;;;;;5085587;28;20036;-71
2021/11/03 09:33:06;;;;;;;5.50;1.70;;;20.80;93.70;;;;;;5085458;28;20036;-70
2021/11/03 09:35:40;;;;;;;5.93;2.28;;;20.70;93.80;;;;;;5084605;28;20031;-70
2021/11/03 09:38:09;;;;;;;3.03;1.25;;;20.70;94.00;;;;;;5085163;28;20099;-75
2021/11/03 09:41:08;;;;;;;4.10;1.25;;;20.70;93.80;;;;;;5085267;28;20379;-68
2021/11/03 09:43:49;;;;;;;4.82;1.67;;;20.60;94.10;;;;;;5069530;28;20028;-72
2021/11/03 09:46:24;;;;;;;4.30;1.38;;;20.60;93.70;;;;;;5082819;28;20021;-74
2021/11/03 09:48:57;;;;;;;8.20;1.30;;;20.50;93.90;;;;;;5081682;28;20536;-72
2021/11/03 09:51:28;;;;;;;3.95;1.02;;;20.40;94.40;;;;;;5078936;28;20035;-70
2021/11/03 09:53:59;;;;;;;5.57;1.20;;;20.30;94.80;;;;;;5081564;28;20062;-75
2021/11/03 09:56:48;;;;;;;4.78;1.27;;;20.30;94.70;;;;;;5080975;28;20558;-70
2021/11/03 09:59:30;;;;;;;6.75;1.35;;;20.30;94.80;;;;;;5082332;28;20036;-70
2021/11/03 10:02:22;;;;;;;8.35;2.33;;;20.20;94.80;;;;;;5081614;28;20777;-74
2021/11/03 10:05:10;;;;;;;5.13;1.50;;;20.20;95.30;;;;;;5081775;28;20025;-75
2021/11/03 10:07:51;;;;;;;5.72;1.25;;;20.10;95.40;;;;;;5080335;28;20036;-73
2021/11/03 10:10:38;;;;;;;5.72;1.27;;;20.20;95.30;;;;;;5081388;28;20418;-74
2021/11/03 10:13:33;;;;;;;3.65;1.38;;;20.10;95.70;;;;;;5079549;28;20119;-73
2021/11/03 10:16:15;;;;;;;3.05;1.70;;;20.00;96.10;;;;;;5078683;28;20541;-74
2021/11/03 10:19:05;;;;;;;7.75;1.60;;;20.00;96.20;;;;;;5081278;28;20020;-72
2021/11/03 10:21:32;;;;;;;4.43;1.23;;;20.00;96.40;;;;;;5059842;28;20531;-74
2021/11/03 10:24:09;;;;;;;5.63;1.75;;;19.90;96.50;;;;;;5079380;28;20029;-75
2021/11/03 10:27:11;;;;;;;5.57;1.20;;;19.90;96.80;;;;;;5080654;28;20024;-72
2021/11/03 10:29:49;;;;;;;3.55;1.20;;;19.80;97.30;;;;;;5082383;28;20024;-73
2021/11/03 10:32:15;;;;;;;6.55;1.40;;;19.80;97.00;;;;;;5079825;28;20032;-75
2021/11/03 10:34:48;;;;;;;4.75;1.45;;;19.80;96.90;;;;;;5081323;28;20028;-76
2021/11/03 10:37:23;;;;;;;4.45;1.23;;;19.80;97.10;;;;;;5079987;28;20390;-74
2021/11/03 10:40:00;;;;;;;6.40;1.27;;;19.80;97.00;;;;;;5080445;28;20050;-74
2021/11/03 10:42:34;;;;;;;4.18;1.27;;;19.80;97.00;;;;;;5060689;28;20034;-72
2021/11/03 10:45:19;;;;;;;5.53;1.38;;;19.80;96.90;;;;;;5059823;28;20344;-72
2021/11/03 10:47:50;;;;;;;5.00;1.25;;;19.80;97.20;;;;;;5079469;28;20039;-74
2021/11/03 10:50:36;;;;;;;9.57;1.50;;;19.80;97.20;;;;;;5080169;28;20031;-73
2021/11/03 10:53:29;;;;;;;8.68;2.05;;;19.80;97.30;;;;;;5077048;28;20141;-73
2021/11/03 10:56:01;;;;;;;5.05;1.27;;;19.70;97.30;;;;;;5050718;28;20089;-75
2021/11/03 10:58:38;;;;;;;7.28;1.88;;;19.70;97.40;;;;;;5085490;28;20067;-73
2021/11/03 11:01:24;;;;;;;3.28;1.50;;;19.60;97.80;;;;;;5084271;28;20796;-73
2021/11/03 11:04:00;;;;;;;5.18;1.52;;;19.60;97.60;;;;;;5083572;28;20029;-73
2021/11/03 11:06:38;;;;;;;4.88;1.60;;;19.60;97.80;;;;;;5083260;28;20479;-73
2021/11/03 11:09:11;;;;;;;3.25;1.05;;;19.60;98.10;;;;;;5082817;28;20016;-76
2021/11/03 11:11:44;;;;;;;8.07;2.67;;;19.50;98.30;;;;;;5082042;28;20028;-72
2021/11/03 11:14:20;;;;;;;;;;;19.50;98.40;;;;;;5083641;28;20035;-72
2021/11/03 11:17:05;;;;;;;4.85;1.55;;;19.50;98.20;;;;;;5081891;28;19921;-75
2021/11/03 11:19:44;;;;;;;3.05;1.48;;;19.60;98.00;;;;;;5083301;28;20076;-72
2021/11/03 11:22:49;;;;;;;8.90;5.03;;;19.50;98.40;;;;;;5082121;28;20509;-73
2021/11/03 11:25:26;;;;;;;2.58;1.33;;;19.40;98.40;;;;;;5080986;28;20116;-72
2021/11/03 11:28:11;;;;;;;2.55;0.77;;;19.40;98.20;;;;;;5082923;28;20149;-75
2021/11/03 11:30:57;;;;;;;4.22;1.40;;;19.40;98.40;;;;;;5080854;28;20035;-72
2021/11/03 11:33:35;;;;;;;4.28;1.10;;;19.40;98.20;;;;;;5081793;28;20355;-73
2021/11/03 11:36:46;;;;;;;4.75;0.95;;;19.50;97.80;;;;;;5082606;28;20039;-75
2021/11/03 11:39:36;;;;;;;4.72;0.98;;;19.40;98.10;;;;;;5050174;28;20092;-75
2021/11/03 11:42:22;;;;;;;3.08;1.05;;;19.30;98.60;;;;;;5081902;28;20051;-72
2021/11/03 11:44:59;;;;;;;3.80;1.10;;;19.30;98.80;;;;;;5082075;28;20485;-73
2021/11/03 11:47:48;;;;;;;1.98;0.80;;;19.20;99.00;;;;;;5082572;28;20026;-73
2021/11/03 11:50:26;;;;;;;2.78;1.17;;;19.20;98.70;;;;;;5081539;28;20183;-72
2021/11/03 11:52:55;;;;;;;3.28;0.75;;;19.30;98.60;;;;;;5082471;28;20034;-72
2021/11/03 11:55:24;;;;;;;4.90;1.13;;;19.20;99.50;;;;;;5081303;28;20359;-73
2021/11/03 11:58:22;;;;;;;3.40;1.10;;;19.20;99.80;;;;;;5083356;28;20537;-75
2021/11/03 12:01:16;;;;;;;4.45;1.17;;;19.10;99.90;;;;;;5082792;28;20015;-73
2021/11/03 12:04:01;;;;;;;5.13;1.52;;;19.20;99.80;;;;;;5057244;28;20514;-71
2021/11/03 12:06:55;;;;;;;4.18;1.02;;;19.20;99.50;;;;;;5082923;28;20072;-70
2021/11/03 12:09:41;;;;;;;5.50;2.38;;;19.30;98.90;;;;;;5083116;28;20546;-72
2021/11/03 12:12:08;;;;;;;4.82;3.22;;;19.30;98.70;;;;;;5083058;28;20028;-72
2021/11/03 12:14:46;;;;;;;6.28;1.70;;;19.30;99.20;;;;;;5082280;28;20406;-74
2021/11/03 12:17:36;;;;;;;4.00;1.23;;;19.20;99.10;;;;;;5084164;28;20028;-74
2021/11/03 12:20:27;;;;;;;2.67;0.80;;;19.20;98.80;;;;;;5082377;28;20052;-75
2021/11/03 12:22:55;;;;;;;7.07;2.28;;;19.20;98.50;;;;;;5084642;28;20028;-72
2021/11/03 12:25:25;;;;;;;5.13;1.42;;;19.20;99.30;;;;;;5085063;28;20034;-75
2021/11/03 12:28:19;;;;;;;4.25;1.52;;;19.20;99.20;;;;;;5067072;28;20036;-72
2021/11/03 12:31:23;;;;;;;5.20;1.20;;;19.20;99.20;;;;;;5086786;28;20062;-73
2021/11/03 12:34:08;;;;;;;4.50;0.88;;;19.30;98.90;;;;;;5086550;28;20031;-74
2021/11/03 12:36:50;;;;;;;5.32;1.20;;;19.20;98.90;;;;;;5085911;28;20031;-73
2021/11/03 12:39:45;;;;;;;6.18;1.35;;;19.10;99.40;;;;;;5086233;28;20521;-73
2021/11/03 12:42:32;;;;;;;4.00;1.05;;;19.10;99.40;;;;;;5086589;28;20109;-73
2021/11/03 12:45:37;;;;;;;8.32;4.40;;;19.20;99.20;;;;;;5086284;28;20078;-74
2021/11/03 12:48:15;;;;;;;5.35;1.70;;;19.10;99.50;;;;;;5062169;28;20490;-71
2021/11/03 12:50:42;;;;;;;4.80;1.40;;;19.10;99.80;;;;;;5086538;28;20090;-73
2021/11/03 12:53:24;;;;;;;3.92;1.63;;;19.10;99.50;;;;;;5086447;28;20031;-73
2021/11/03 12:55:56;;;;;;;4.90;1.55;;;19.00;99.90;;;;;;5085616;28;20054;-73
2021/11/03 12:58:28;;;;;;;3.53;1.08;;;18.90;99.90;;;;;;5086078;28;20073;-73
2021/11/03 13:00:55;;;;;;;4.10;1.25;;;18.90;99.90;;;;;;5085701;28;20712;-73
2021/11/03 13:03:29;;;;;;;5.65;1.35;;;18.80;99.90;;;;;;5088114;28;20384;-73
2021/11/03 13:05:59;;;;;;;3.28;1.27;;;18.80;99.90;;;;;;5066775;28;20491;-75
2021/11/03 13:08:44;;;;;;;3.95;1.50;;;18.80;99.90;;;;;;5084880;28;20039;-74
2021/11/03 13:11:22;;;;;;;2.92;1.27;;;18.80;99.90;;;;;;5085000;28;20040;-73
2021/11/03 13:13:54;;;;;;;6.07;1.13;;;18.80;99.90;;;;;;5084805;28;20036;-74
2021/11/03 13:16:26;;;;;;;9.63;1.25;;;18.90;99.90;;;;;;5085687;28;20024;-74
2021/11/03 13:18:54;;;;;;;4.88;1.20;;;18.90;99.90;;;;;;5085544;28;20028;-73